Impacts TAF Board
For situational awareness. Not to be used for flight planning purposes.
IDs:

KTMB - Miami Exec Arpt, FL, US

Issued at 2048 UTC 30 Jun 2022
Updated at 2149 UTC 30 Jun 2022
Potential Impact None Slight Moderate High
Time2053Z 30/22Z 30/23Z 01/00Z 01/01Z 01/02Z 01/03Z 01/04Z 01/05Z 01/06Z 01/07Z 01/08Z 01/09Z 01/10Z>>
Type OBS PRVL PRVL PRVL PRVL PRVL PRVL PRVL PRVL PRVL PRVL PRVL PRVL PRVL
VIS 10 >6 >6 >6 >6 >6 >6 >6 >6 >6 >6 >6 >6 >6
CIG -- -- -- -- -- -- -- -- -- -- -- -- -- --
Cover FEW SCT SCT SCT SCT SCT SCT SCT SCT SCT SCT SCT SCT SCT
FltCat VFR VFR VFR VFR VFR VFR VFR VFR VFR VFR VFR VFR VFR VFR
WX -- -- -- -- -- -- -- -- -- -- -- -- -- --
WDir 120 100 100 100 100 100 100 100 VRB VRB VRB VRB VRB VRB
WSpd 10 7 7 7 7 7 7 7 4 4 4 4 4 4
WGst -- -- -- -- -- -- -- -- -- -- -- -- -- --
WSHgt -- -- -- -- -- -- -- -- -- -- -- -- -- --
WSDir -- -- -- -- -- -- -- -- -- -- -- -- -- --
WSSpd -- -- -- -- -- -- -- -- -- -- -- -- -- --
Raw TAF
KTMB 302048Z 3021/0118 11010KT P6SM VCTS SCT030CB BKN050
  FM302200 10007KT P6SM SCT030 SCT250
  FM010500 VRB04KT P6SM FEW025 SCT250
  FM011400 11009KT P6SM VCSH SCT030 SCT250


Raw METAR
KTMB 302053Z 12010KT 10SM FEW037 31/22 A3007 RMK AO2 LTG DSNT NW SLP183 T03060222 55008
KTMB 301953Z 12011KT 10SM FEW037 32/23 A3006 RMK AO2 LTG DSNT W-N SLP179 T03220228
KTMB 301853Z 12012G17KT 10SM FEW037 SCT044 32/24 A3008 RMK AO2 LTG DSNT N SLP184 T03220239

METAR Board
Radar Display
Forecast Discussion
For situational awareness. Not to be used for flight planning purposes.